Time;durP1;ratioP1;P1;durP2;ratioP2;P2;SDS_P1;SDS_P2;PMS_P1;PMS_P2;Temp;Humidity;BMP_temperature;BMP_pressure;BME280_temperature;BME280_humidity;BME280_pressure;Samples;Min_cycle;Max_cycle;Signal;HPM_P1;HPM_P2
2022/10/23 00:01:19;;;;;;;23.02;10.60;;;;;;;14.76;100.00;98363.53;5096544;28;20119;-87
2022/10/23 00:03:46;;;;;;;19.38;10.48;;;;;;;14.84;100.00;98353.38;5095805;28;20052;-87
2022/10/23 00:06:17;;;;;;;18.33;9.65;;;;;;;14.97;100.00;98351.44;5112073;28;20085;-86
2022/10/23 00:08:44;;;;;;;26.17;11.52;;;;;;;14.92;100.00;98351.38;5096502;28;20040;-86
2022/10/23 00:11:12;;;;;;;21.40;11.00;;;;;;;15.02;100.00;98343.59;5078190;28;20052;-85
2022/10/23 00:13:37;;;;;;;17.60;10.95;;;;;;;15.04;100.00;98348.66;5096268;28;20070;-86
2022/10/23 00:16:03;;;;;;;20.13;11.82;;;;;;;14.97;100.00;98344.34;5096426;28;20024;-85
2022/10/23 00:18:33;;;;;;;23.90;12.93;;;;;;;14.91;100.00;98341.84;5094713;28;20114;-85
2022/10/23 00:20:59;;;;;;;19.05;11.88;;;;;;;15.03;100.00;98344.41;5095935;28;20036;-84
2022/10/23 00:23:25;;;;;;;20.00;11.30;;;;;;;15.04;100.00;98338.06;5097421;28;20468;-86
2022/10/23 00:25:50;;;;;;;18.95;11.38;;;;;;;15.06;100.00;98330.69;5096775;28;20058;-85
2022/10/23 00:28:16;;;;;;;21.67;11.32;;;;;;;15.05;100.00;98327.28;5095029;28;20032;-86
2022/10/23 00:30:42;;;;;;;26.25;11.80;;;;;;;14.97;100.00;98333.75;5096180;28;20024;-85
2022/10/23 00:33:09;;;;;;;23.10;11.93;;;;;;;15.05;100.00;98339.69;5094493;28;20066;-86
2022/10/23 00:35:39;;;;;;;19.40;11.32;;;;;;;15.01;100.00;98333.28;5096179;28;20027;-86
2022/10/23 00:38:05;;;;;;;20.45;10.68;;;;;;;14.94;100.00;98326.31;5095099;28;20481;-85
2022/10/23 00:40:31;;;;;;;28.77;11.75;;;;;;;14.84;100.00;98328.78;5096150;28;20023;-85
2022/10/23 00:42:57;;;;;;;18.80;11.32;;;;;;;14.83;100.00;98324.53;5095793;28;20036;-85
2022/10/23 00:45:26;;;;;;;20.92;10.98;;;;;;;14.89;100.00;98334.16;5095800;28;20024;-85
2022/10/23 00:47:53;;;;;;;23.63;11.85;;;;;;;14.83;100.00;98332.47;5096158;28;20055;-85
2022/10/23 00:50:21;;;;;;;24.60;12.43;;;;;;;14.88;100.00;98335.19;5095545;28;20044;-84
2022/10/23 00:52:53;;;;;;;22.10;12.45;;;;;;;14.94;100.00;98323.69;5095567;28;20038;-85
2022/10/23 00:55:21;;;;;;;19.95;12.02;;;;;;;14.83;100.00;98316.63;5077227;28;20036;-85
2022/10/23 00:57:49;;;;;;;19.42;11.10;;;;;;;14.84;100.00;98326.97;5096090;28;20027;-86
2022/10/23 01:00:22;;;;;;;20.48;10.57;;;;;;;14.85;100.00;98325.91;5094475;28;20032;-86
2022/10/23 01:02:48;;;;;;;24.13;11.95;;;;;;;14.79;100.00;98320.78;5096241;28;20024;-84
2022/10/23 01:05:14;;;;;;;20.92;11.57;;;;;;;14.83;100.00;98321.91;5097729;28;20107;-85
2022/10/23 01:07:55;;;;;;;21.77;11.27;;;;;;;14.98;100.00;98323.97;5095226;28;20565;-87
2022/10/23 01:10:44;;;;;;;21.25;11.55;;;;;;;14.97;100.00;98322.38;5096507;28;20032;-84
2022/10/23 01:13:22;;;;;;;20.08;10.82;;;;;;;15.03;100.00;98305.53;5095412;28;20494;-87
2022/10/23 01:16:12;;;;;;;19.70;11.60;;;;;;;15.12;100.00;98313.88;5094739;28;20032;-86
2022/10/23 01:18:55;;;;;;;17.23;11.20;;;;;;;15.13;100.00;98302.25;5096629;28;20028;-86
2022/10/23 01:21:25;;;;;;;21.40;12.13;;;;;;;15.18;100.00;98302.34;5078249;28;20358;-86
2022/10/23 01:24:38;;;;;;;22.83;11.70;;;;;;;15.22;100.00;98298.16;5095278;28;20028;-87
2022/10/23 01:27:27;;;;;;;26.40;14.38;;;;;;;15.20;100.00;98289.69;5013797;28;20044;-83
2022/10/23 01:30:05;;;;;;;24.60;13.57;;;;;;;15.11;100.00;98283.19;4996496;28;20607;-86
2022/10/23 01:32:39;;;;;;;28.38;14.40;;;;;;;15.21;100.00;98274.59;5073076;28;20486;-86
2022/10/23 01:35:17;;;;;;;30.80;14.77;;;;;;;15.28;100.00;98257.53;5095651;28;20069;-84
2022/10/23 01:38:01;;;;;;;21.05;12.95;;;;;;;15.28;100.00;98270.75;5094507;28;20047;-84
2022/10/23 01:40:41;;;;;;;;;;;;;;;15.29;100.00;98258.34;5092073;28;20043;-85
2022/10/23 01:43:16;;;;;;;30.98;14.73;;;;;;;15.16;100.00;98253.41;5094319;28;19916;-87
2022/10/23 01:45:56;;;;;;;25.90;13.98;;;;;;;15.12;100.00;98255.72;5094365;28;20389;-87
2022/10/23 01:48:26;;;;;;;25.65;14.80;;;;;;;15.08;100.00;98251.97;5093465;28;20427;-86
2022/10/23 01:50:56;;;;;;;23.98;13.27;;;;;;;15.02;100.00;98251.09;5093889;28;20427;-86
2022/10/23 01:53:25;;;;;;;22.50;14.05;;;;;;;15.04;100.00;98248.22;5095386;28;20470;-86
2022/10/23 01:55:50;;;;;;;31.83;13.95;;;;;;;15.01;100.00;98248.72;5095790;28;20042;-85
2022/10/23 01:58:19;;;;;;;24.15;13.23;;;;;;;15.06;100.00;98246.13;5095770;28;20028;-86
2022/10/23 02:00:47;;;;;;;23.98;12.85;;;;;;;15.06;100.00;98254.06;5095406;28;20454;-86
2022/10/23 02:03:16;;;;;;;21.77;12.68;;;;;;;15.13;100.00;98250.19;5095545;28;20048;-86
2022/10/23 02:05:42;;;;;;;26.20;13.70;;;;;;;15.13;100.00;98249.38;5095176;28;20051;-85
2022/10/23 02:08:09;;;;;;;23.75;11.88;;;;;;;15.13;100.00;98252.03;5104229;28;20039;-86
2022/10/23 02:11:00;;;;;;;29.52;12.68;;;;;;;15.13;100.00;98239.63;5101186;28;20043;-86
2022/10/23 02:13:37;;;;;;;18.73;11.98;;;;;;;15.21;100.00;98238.41;5117893;28;20066;-86
2022/10/23 02:16:15;;;;;;;21.45;11.68;;;;;;;15.13;100.00;98236.16;5078248;28;20039;-86
2022/10/23 02:18:54;;;;;;;24.15;12.20;;;;;;;15.22;100.00;98234.72;5093346;28;20082;-87
2022/10/23 02:21:32;;;;;;;17.88;11.20;;;;;;;15.26;100.00;98235.81;5092924;28;20024;-87
2022/10/23 02:24:30;;;;;;;25.33;13.02;;;;;;;15.09;100.00;98235.06;5092522;28;20040;-84
2022/10/23 02:26:59;;;;;;;22.80;11.27;;;;;;;15.13;100.00;98220.31;5068449;28;20044;-86
2022/10/23 02:29:42;;;;;;;23.73;11.23;;;;;;;15.30;100.00;98225.56;5093555;28;20081;-86
2022/10/23 02:32:09;;;;;;;18.13;10.73;;;;;;;15.26;100.00;98225.25;5092971;28;20023;-86
2022/10/23 02:34:37;;;;;;;24.55;11.80;;;;;;;15.24;100.00;98215.97;5092971;28;20101;-86
2022/10/23 02:37:03;;;;;;;20.17;10.80;;;;;;;15.31;100.00;98218.41;5107454;28;20388;-85
2022/10/23 02:39:29;;;;;;;24.38;10.45;;;;;;;15.24;100.00;98206.19;5091733;28;20035;-85
2022/10/23 02:42:01;;;;;;;20.10;10.13;;;;;;;15.33;100.00;98213.69;5092675;28;20024;-86
2022/10/23 02:44:32;;;;;;;18.60;9.25;;;;;;;15.38;100.00;98211.13;5108811;28;20515;-84
2022/10/23 02:47:01;;;;;;;17.63;10.35;;;;;;;15.35;100.00;98217.69;5092597;28;20533;-85
2022/10/23 02:49:57;;;;;;;18.02;10.07;;;;;;;15.42;100.00;98215.66;5109080;28;20092;-86
2022/10/23 02:52:31;;;;;;;25.02;10.40;;;;;;;15.36;100.00;98207.94;5093877;28;20028;-86
2022/10/23 02:55:25;;;;;;;24.33;10.13;;;;;;;15.46;100.00;98205.38;5092445;28;20039;-86
2022/10/23 02:57:57;;;;;;;16.73;10.38;;;;;;;15.44;100.00;98193.47;5091791;28;20050;-85
2022/10/23 03:00:24;;;;;;;17.67;10.68;;;;;;;15.42;100.00;98186.56;5092794;28;20444;-85
2022/10/23 03:02:59;;;;;;;19.25;11.15;;;;;;;15.35;100.00;98195.75;5092589;28;20119;-87
2022/10/23 03:05:34;;;;;;;19.00;11.10;;;;;;;15.45;100.00;98198.50;5108434;28;20097;-84
2022/10/23 03:08:07;;;;;;;16.58;9.48;;;;;;;15.45;100.00;98195.06;5092345;28;20032;-86
2022/10/23 03:10:32;;;;;;;28.08;11.35;;;;;;;15.21;100.00;98190.81;5092457;28;20024;-85
2022/10/23 03:12:58;;;;;;;21.30;11.75;;;;;;;15.39;100.00;98192.34;5092465;28;20034;-85
2022/10/23 03:15:24;;;;;;;18.08;10.80;;;;;;;15.43;100.00;98190.03;5108374;28;20040;-85
2022/10/23 03:17:49;;;;;;;16.67;10.63;;;;;;;15.37;100.00;98183.09;5093101;28;20115;-85
2022/10/23 03:20:17;;;;;;;22.10;10.55;;;;;;;15.33;100.00;98181.94;5109274;28;20605;-85
2022/10/23 03:22:42;;;;;;;25.67;12.00;;;;;;;15.32;100.00;98175.88;5090474;28;20043;-84
2022/10/23 03:25:08;;;;;;;19.08;10.52;;;;;;;15.39;100.00;98165.13;5074573;28;20032;-85
2022/10/23 03:27:35;;;;;;;24.40;11.60;;;;;;;15.39;100.00;98162.47;5092706;28;20390;-85
2022/10/23 03:30:01;;;;;;;18.20;11.55;;;;;;;15.39;100.00;98165.13;5092489;28;20099;-83
2022/10/23 03:32:27;;;;;;;20.60;12.27;;;;;;;15.30;100.00;98166.59;5090739;28;20477;-85
2022/10/23 03:34:53;;;;;;;21.40;10.95;;;;;;;15.22;100.00;98163.34;5096793;28;20038;-84
2022/10/23 03:37:21;;;;;;;29.13;12.20;;;;;;;15.05;100.00;98154.66;5096959;28;20032;-85
2022/10/23 03:39:47;;;;;;;26.80;11.27;;;;;;;15.00;100.00;98152.75;5095398;28;20031;-85
2022/10/23 03:42:12;;;;;;;22.48;11.27;;;;;;;14.94;100.00;98148.47;5096124;28;20024;-85
2022/10/23 03:44:38;;;;;;;20.58;10.43;;;;;;;14.85;100.00;98135.69;5096167;28;20035;-84
2022/10/23 03:47:04;;;;;;;20.35;10.93;;;;;;;14.81;100.00;98131.13;5096013;28;20028;-84
2022/10/23 03:49:29;;;;;;;21.83;11.57;;;;;;;14.83;100.00;98131.69;5096492;28;20031;-84
2022/10/23 03:51:55;;;;;;;23.02;11.52;;;;;;;14.74;100.00;98122.56;5096529;28;20439;-86
2022/10/23 03:54:23;;;;;;;21.75;10.57;;;;;;;14.73;100.00;98135.00;5096614;28;20066;-85
2022/10/23 03:56:49;;;;;;;29.05;12.65;;;;;;;14.73;100.00;98135.00;5096404;28;20055;-85
2022/10/23 03:59:15;;;;;;;28.73;12.27;;;;;;;14.69;100.00;98129.34;5096143;28;20035;-84
2022/10/23 04:01:41;;;;;;;26.13;13.50;;;;;;;14.75;100.00;98129.47;5094982;28;20020;-85
2022/10/23 04:04:07;;;;;;;25.42;12.60;;;;;;;14.77;100.00;98132.66;5095219;28;20043;-84
2022/10/23 04:06:33;;;;;;;21.98;12.40;;;;;;;14.76;100.00;98120.50;5094063;28;20107;-85
2022/10/23 04:08:59;;;;;;;22.23;12.30;;;;;;;14.79;100.00;98123.44;5094014;28;20039;-85
2022/10/23 04:11:25;;;;;;;19.63;12.80;;;;;;;14.84;100.00;98128.00;5099576;28;20466;-83
2022/10/23 04:13:52;;;;;;;27.80;13.13;;;;;;;14.85;100.00;98126.94;5095031;28;20084;-85
2022/10/23 04:16:18;;;;;;;23.90;12.50;;;;;;;14.89;100.00;98125.41;5095082;28;20028;-85
2022/10/23 04:18:43;;;;;;;23.23;13.43;;;;;;;14.86;100.00;98125.91;5095293;28;20031;-86
2022/10/23 04:21:10;;;;;;;26.77;13.10;;;;;;;14.87;100.00;98119.56;5094921;28;20027;-86
2022/10/23 04:23:36;;;;;;;27.08;14.60;;;;;;;14.88;100.00;98118.53;5094445;28;20488;-85
2022/10/23 04:26:01;;;;;;;27.58;12.70;;;;;;;14.92;100.00;98127.56;5094564;28;20102;-85
2022/10/23 04:28:27;;;;;;;25.33;13.68;;;;;;;14.93;100.00;98105.38;5077536;28;20036;-84
2022/10/23 04:30:52;;;;;;;24.08;12.48;;;;;;;14.96;100.00;98101.44;5094363;28;20058;-85
2022/10/23 04:33:18;;;;;;;36.05;15.82;;;;;;;14.99;100.00;98096.47;5095654;28;20084;-85
2022/10/23 04:35:44;;;;;;;28.95;14.48;;;;;;;15.01;100.00;98087.50;5095850;28;20114;-84
2022/10/23 04:38:10;;;;;;;29.90;14.45;;;;;;;15.05;100.00;98080.69;5111038;28;20085;-85
2022/10/23 04:40:35;;;;;;;25.88;13.15;;;;;;;15.08;100.00;98074.88;5094680;28;20038;-85
2022/10/23 04:43:01;;;;;;;28.77;14.90;;;;;;;15.13;100.00;98074.94;5095330;28;20374;-86
2022/10/23 04:45:26;;;;;;;37.35;16.15;;;;;;;15.11;100.00;98069.09;5094545;28;20566;-84
2022/10/23 04:47:55;;;;;;;37.63;16.90;;;;;;;15.13;100.00;98064.38;5094762;28;20027;-85
2022/10/23 04:50:21;;;;;;;37.80;16.23;;;;;;;15.13;100.00;98062.53;5094115;28;20040;-85
2022/10/23 04:52:47;;;;;;;30.02;15.43;;;;;;;15.13;100.00;98054.59;5095364;28;20036;-86
2022/10/23 04:55:12;;;;;;;34.20;16.42;;;;;;;15.11;100.00;98054.06;5095530;28;20117;-85
2022/10/23 04:57:38;;;;;;;38.03;16.00;;;;;;;15.17;100.00;98046.19;5096477;28;20064;-85
2022/10/23 05:00:07;;;;;;;35.55;16.95;;;;;;;15.20;100.00;98045.66;5097016;28;20036;-84
2022/10/23 05:02:33;;;;;;;35.65;16.90;;;;;;;15.16;100.00;98045.41;5095993;28;20095;-85
2022/10/23 05:04:59;;;;;;;39.28;17.25;;;;;;;15.22;100.00;98038.28;5094069;28;20066;-85
2022/10/23 05:07:33;;;;;;;36.85;17.20;;;;;;;15.19;100.00;98034.31;5091222;28;20077;-85
2022/10/23 05:09:58;;;;;;;33.40;18.50;;;;;;;15.18;100.00;98035.38;5093426;28;20038;-85
2022/10/23 05:12:25;;;;;;;34.35;17.30;;;;;;;15.21;100.00;98026.94;5110403;28;20465;-84
2022/10/23 05:14:51;;;;;;;43.25;17.90;;;;;;;15.23;100.00;98018.72;5095273;28;20093;-85
2022/10/23 05:17:22;;;;;;;37.33;17.73;;;;;;;15.22;100.00;98017.13;5110851;27;20036;-83
2022/10/23 05:19:54;;;;;;;36.75;17.63;;;;;;;15.25;100.00;98012.16;5094583;28;20036;-85
2022/10/23 05:22:24;;;;;;;37.20;18.10;;;;;;;15.21;100.00;98008.44;5094051;28;20035;-85
2022/10/23 05:24:50;;;;;;;38.80;17.98;;;;;;;15.23;100.00;98006.31;5076543;28;20687;-85
2022/10/23 05:27:16;;;;;;;37.92;17.33;;;;;;;15.18;100.00;97990.44;5094342;28;20104;-86
2022/10/23 05:29:41;;;;;;;34.50;18.15;;;;;;;15.24;100.00;97989.41;5110277;28;20036;-85
2022/10/23 05:32:10;;;;;;;41.72;18.48;;;;;;;15.25;100.00;97982.31;5094711;28;20031;-85
2022/10/23 05:34:37;;;;;;;40.25;19.17;;;;;;;15.19;100.00;97978.81;5093677;28;20075;-85
2022/10/23 05:37:06;;;;;;;38.78;18.60;;;;;;;15.23;100.00;97969.31;5094268;28;20035;-85
2022/10/23 05:39:32;;;;;;;45.00;18.60;;;;;;;15.19;100.00;97972.72;5094172;28;20042;-84
2022/10/23 05:41:59;;;;;;;45.40;18.90;;;;;;;15.15;100.00;97956.56;5092811;28;20039;-84
2022/10/23 05:44:24;;;;;;;43.45;19.17;;;;;;;15.18;100.00;97957.91;5111416;28;20024;-85
2022/10/23 05:46:50;;;;;;;37.20;18.70;;;;;;;15.16;100.00;97960.81;5094977;28;20366;-85
2022/10/23 05:49:15;;;;;;;39.35;18.63;;;;;;;15.17;100.00;97967.69;5094720;28;20395;-85
2022/10/23 05:51:41;;;;;;;41.20;20.88;;;;;;;15.18;100.00;97982.50;5093792;28;20102;-84
2022/10/23 05:54:09;;;;;;;42.00;19.95;;;;;;;15.16;100.00;97981.16;5093508;28;20043;-85
2022/10/23 05:56:36;;;;;;;46.00;20.10;;;;;;;15.16;100.00;97997.00;5093437;28;20035;-85
2022/10/23 05:59:02;;;;;;;53.88;22.50;;;;;;;15.10;100.00;98004.91;5094022;28;20054;-86
2022/10/23 06:01:28;;;;;;;50.60;24.02;;;;;;;15.09;100.00;97991.91;5094610;28;20031;-85
2022/10/23 06:03:54;;;;;;;43.67;22.63;;;;;;;15.14;100.00;97999.91;5092734;28;20543;-84
2022/10/23 06:06:19;;;;;;;90.20;28.58;;;;;;;15.09;100.00;97986.63;5094333;28;20046;-85
2022/10/23 06:08:45;;;;;;;134.68;28.42;;;;;;;15.12;100.00;97986.13;5095260;28;20020;-84
2022/10/23 06:11:12;;;;;;;70.03;27.42;;;;;;;15.13;100.00;97987.72;5094004;28;20031;-85
2022/10/23 06:13:41;;;;;;;97.25;31.17;;;;;;;15.14;100.00;97987.47;5110564;27;20491;-85
2022/10/23 06:16:13;;;;;;;73.45;28.73;;;;;;;15.12;100.00;97989.56;5092438;28;20032;-85
2022/10/23 06:18:39;;;;;;;141.77;32.95;;;;;;;15.05;100.00;97985.53;5092421;28;20024;-85
2022/10/23 06:21:05;;;;;;;60.80;24.00;;;;;;;15.10;100.00;97991.69;5093864;28;20020;-85
2022/10/23 06:23:31;;;;;;;136.82;28.80;;;;;;;15.09;100.00;97987.44;5091597;28;20114;-84
2022/10/23 06:25:57;;;;;;;81.38;24.38;;;;;;;15.05;100.00;97982.91;5092985;28;20075;-86
2022/10/23 06:28:23;;;;;;;237.55;30.95;;;;;;;15.03;100.00;97979.72;5090177;28;20031;-85
2022/10/23 06:30:49;;;;;;;36.50;20.02;;;;;;;15.06;100.00;97982.66;5111146;28;20028;-85
2022/10/23 06:33:14;;;;;;;107.88;23.70;;;;;;;15.02;100.00;97986.81;5094098;28;20382;-85
2022/10/23 06:35:40;;;;;;;46.00;22.02;;;;;;;15.02;100.00;97983.41;5092442;28;20380;-84
2022/10/23 06:38:05;;;;;;;59.30;20.73;;;;;;;14.96;100.00;97978.06;5109665;28;20032;-86
2022/10/23 06:40:31;;;;;;;62.60;22.13;;;;;;;14.92;100.00;97981.44;5091786;28;20431;-82
2022/10/23 06:42:57;;;;;;;180.80;26.77;;;;;;;14.87;100.00;97990.13;5093377;28;20085;-82
2022/10/23 06:45:22;;;;;;;188.60;28.40;;;;;;;14.80;100.00;97978.97;5091332;28;20032;-81
2022/10/23 06:47:51;;;;;;;148.48;25.48;;;;;;;14.87;100.00;97990.13;5073878;28;20039;-82
2022/10/23 06:50:17;;;;;;;44.67;19.38;;;;;;;14.85;100.00;97989.56;5090510;28;20051;-82
2022/10/23 06:52:43;;;;;;;43.75;19.40;;;;;;;14.91;100.00;97998.34;5073730;28;20028;-82
2022/10/23 06:55:09;;;;;;;63.78;21.60;;;;;;;14.86;100.00;97991.16;5092230;28;20081;-82
2022/10/23 06:57:37;;;;;;;90.75;23.45;;;;;;;14.84;100.00;97996.72;5091164;28;20089;-81
2022/10/23 07:00:03;;;;;;;43.88;20.05;;;;;;;14.86;100.00;97999.09;5092232;28;20032;-82
2022/10/23 07:02:35;;;;;;;41.85;19.70;;;;;;;14.91;100.00;97999.13;5090584;28;20454;-82
2022/10/23 07:05:01;;;;;;;52.28;22.40;;;;;;;14.84;100.00;97996.72;5092158;28;20031;-82
2022/10/23 07:07:28;;;;;;;114.13;24.35;;;;;;;14.86;100.00;97993.81;5092441;28;20093;-83
2022/10/23 07:09:54;;;;;;;40.42;19.80;;;;;;;14.83;100.00;97989.81;5095161;28;20381;-82
2022/10/23 07:12:20;;;;;;;54.03;20.38;;;;;;;14.85;100.00;97981.66;5095101;28;20032;-81
2022/10/23 07:14:46;;;;;;;97.78;21.88;;;;;;;14.82;100.00;97966.28;5094662;28;20031;-82
2022/10/23 07:17:12;;;;;;;39.20;18.70;;;;;;;14.79;100.00;97972.06;5096300;28;20028;-82
2022/10/23 07:19:38;;;;;;;40.65;19.15;;;;;;;14.78;100.00;97959.91;5095432;28;20077;-82
2022/10/23 07:22:04;;;;;;;37.17;18.63;;;;;;;14.83;100.00;97959.97;5094333;28;20069;-81
2022/10/23 07:24:30;;;;;;;50.72;19.10;;;;;;;14.85;100.00;97957.88;5094025;28;20027;-81
2022/10/23 07:26:57;;;;;;;45.00;21.38;;;;;;;14.90;100.00;97957.13;5094149;28;20056;-82
2022/10/23 07:29:26;;;;;;;45.13;20.05;;;;;;;14.90;100.00;97978.25;5094420;28;20115;-81
2022/10/23 07:31:52;;;;;;;35.97;17.73;;;;;;;14.80;100.00;97979.75;5077038;28;20406;-81
2022/10/23 07:34:21;;;;;;;28.92;14.20;;;;;;;14.33;100.00;97938.78;5095484;28;20479;-83
2022/10/23 07:36:50;;;;;;;23.80;11.43;;;;;;;14.30;100.00;97955.13;5096045;28;20067;-85
2022/10/23 07:39:16;;;;;;;22.40;11.00;;;;;;;14.42;100.00;97944.44;5093264;28;20130;-86
2022/10/23 07:41:46;;;;;;;20.27;9.68;;;;;;;14.54;100.00;97936.38;5095132;28;20031;-84
2022/10/23 07:44:11;;;;;;;20.35;11.32;;;;;;;14.48;100.00;97930.25;5095466;28;20035;-83
2022/10/23 07:46:37;;;;;;;24.80;11.68;;;;;;;14.47;100.00;97927.84;5096651;28;20036;-84
2022/10/23 07:49:02;;;;;;;27.75;13.80;;;;;;;14.49;100.00;97923.13;5096380;28;20378;-84
2022/10/23 07:51:28;;;;;;;101.45;19.70;;;;;;;14.52;100.00;97910.25;5096577;28;20048;-84
2022/10/23 07:53:53;;;;;;;146.27;23.52;;;;;;;14.52;100.00;97907.59;5096249;28;20032;-84
2022/10/23 07:56:31;;;;;;;275.83;29.83;;;;;;;14.56;100.00;97905.28;5095311;28;20035;-83
2022/10/23 07:59:02;;;;;;;185.88;25.90;;;;;;;14.51;100.00;97887.53;5096596;28;20032;-84
2022/10/23 08:01:37;;;;;;;93.65;20.17;;;;;;;14.59;100.00;97886.28;5076449;28;20092;-84
2022/10/23 08:04:03;;;;;;;157.95;25.27;;;;;;;14.53;100.00;97884.63;5085344;28;20107;-86
2022/10/23 08:06:29;;;;;;;52.28;18.13;;;;;;;14.51;100.00;97876.16;5082247;28;20031;-83
2022/10/23 08:08:55;;;;;;;201.15;23.67;;;;;;;14.45;100.00;97877.97;5099266;28;20151;-83
2022/10/23 08:11:29;;;;;;;137.63;22.85;;;;;;;14.47;100.00;97877.69;5095158;28;20126;-84
2022/10/23 08:13:57;;;;;;;175.90;23.20;;;;;;;14.50;100.00;97871.91;5096114;28;20482;-83
2022/10/23 08:16:24;;;;;;;89.10;17.15;;;;;;;14.48;100.00;97866.09;5111613;28;20047;-84
2022/10/23 08:18:50;;;;;;;174.90;22.60;;;;;;;14.52;100.00;97875.91;5093811;28;20039;-83
2022/10/23 08:21:17;;;;;;;59.58;14.55;;;;;;;14.50;100.00;97874.56;5078011;28;20067;-83
2022/10/23 08:23:43;;;;;;;51.33;15.52;;;;;;;14.51;100.00;97876.16;5078813;28;20384;-84
2022/10/23 08:26:11;;;;;;;65.47;17.05;;;;;;;14.56;100.00;97877.00;5096108;28;20028;-83
2022/10/23 08:28:37;;;;;;;37.25;16.42;;;;;;;14.57;100.00;97875.94;5084432;28;20458;-82
2022/10/23 08:31:12;;;;;;;58.95;17.33;;;;;;;14.57;100.00;97869.88;5095407;28;20362;-82
2022/10/23 08:33:39;;;;;;;132.63;20.10;;;;;;;14.52;100.00;97853.97;5077291;28;20039;-85
2022/10/23 08:36:18;;;;;;;57.58;18.08;;;;;;;14.54;100.00;97865.91;5076460;28;20031;-84
2022/10/23 08:38:44;;;;;;;79.00;20.20;;;;;;;14.50;100.00;97870.09;5076170;28;20058;-83
2022/10/23 08:41:33;;;;;;;61.03;17.85;;;;;;;14.52;100.00;97868.00;5091465;28;20063;-84
2022/10/23 08:44:11;;;;;;;34.13;16.75;;;;;;;14.52;100.00;97862.72;5091811;28;20050;-84
2022/10/23 08:46:46;;;;;;;39.47;19.15;;;;;;;14.48;100.00;97856.34;5109106;28;20377;-85
2022/10/23 08:49:36;;;;;;;52.00;21.38;;;;;;;14.61;100.00;97860.41;5091462;28;20071;-84
2022/10/23 08:52:12;;;;;;;49.60;22.05;;;;;;;14.50;100.00;97859.53;5090691;28;20036;-85
2022/10/23 08:54:54;;;;;;;56.83;22.17;;;;;;;14.49;100.00;97847.38;5091705;28;20060;-85
2022/10/23 08:57:31;;;;;;;53.90;22.38;;;;;;;14.50;100.00;97845.50;5093249;28;20485;-84
2022/10/23 09:00:03;;;;;;;151.65;28.65;;;;;;;14.42;100.00;97841.47;5089902;28;20056;-84
2022/10/23 09:02:40;;;;;;;40.70;23.20;;;;;;;14.42;100.00;97836.19;5093014;28;20028;-84
2022/10/23 09:05:14;;;;;;;41.58;23.00;;;;;;;14.48;100.00;97826.47;5092659;28;20031;-82
2022/10/23 09:08:24;;;;;;;59.65;24.80;;;;;;;15.39;100.00;97853.13;5091083;28;20598;-83
2022/10/23 09:11:04;;;;;;;42.05;22.80;;;;;;;15.42;100.00;97852.59;5055203;28;20053;-84
2022/10/23 09:13:34;;;;;;;41.03;21.63;;;;;;;15.45;100.00;97803.72;5092186;28;20480;-83
2022/10/23 09:16:42;;;;;;;53.33;22.50;;;;;;;15.47;100.00;97793.66;5090827;28;20040;-85
2022/10/23 09:19:15;;;;;;;52.22;24.75;;;;;;;15.44;100.00;97797.63;5079004;28;20051;-86
2022/10/23 09:21:43;;;;;;;55.17;23.88;;;;;;;15.37;100.00;97797.06;5091447;28;20051;-84
2022/10/23 09:24:20;;;;;;;42.15;22.10;;;;;;;15.43;100.00;97780.16;5092558;28;20428;-85
2022/10/23 09:26:48;;;;;;;38.85;21.45;;;;;;;15.42;100.00;97770.63;5092386;28;20501;-84
2022/10/23 09:29:24;;;;;;;35.67;20.45;;;;;;;15.40;100.00;97764.81;5092486;28;20032;-86
2022/10/23 09:31:53;;;;;;;35.67;20.70;;;;;;;15.35;100.00;97764.78;5089930;28;20166;-86
2022/10/23 09:34:21;;;;;;;32.08;19.77;;;;;;;15.39;100.00;97765.88;5090901;28;20035;-85
2022/10/23 09:36:56;;;;;;;38.70;20.38;;;;;;;15.43;100.00;97751.06;5092574;28;20032;-85
2022/10/23 09:39:33;;;;;;;35.78;20.60;;;;;;;15.47;100.00;97746.84;5092334;28;20067;-85
2022/10/23 09:42:02;;;;;;;34.20;18.52;;;;;;;15.46;100.00;97734.69;5091263;28;20044;-85
2022/10/23 09:44:31;;;;;;;29.83;17.90;;;;;;;15.51;100.00;97733.91;5091894;28;20397;-84
2022/10/23 09:47:12;;;;;;;31.95;17.20;;;;;;;15.51;100.00;97744.50;5091358;28;20393;-85
2022/10/23 09:49:45;;;;;;;21.45;13.63;;;;;;;15.40;100.00;97727.78;5090615;28;20115;-84
2022/10/23 09:52:10;;;;;;;;;;;;;;;15.46;100.00;97721.47;5091536;28;20397;-85
2022/10/23 09:54:45;;;;;;;24.58;14.18;;;;;;;15.45;100.00;97708.50;5092201;28;19912;-85
2022/10/23 09:57:39;;;;;;;21.75;13.85;;;;;;;15.49;100.00;97710.38;5091325;28;20047;-85
2022/10/23 10:00:18;;;;;;;22.52;13.73;;;;;;;15.48;100.00;97700.84;5090556;28;20039;-85
2022/10/23 10:03:01;;;;;;;21.50;13.80;;;;;;;15.42;100.00;97693.94;5091851;28;20039;-85
2022/10/23 10:05:28;;;;;;;20.73;14.27;;;;;;;15.33;100.00;97679.63;5092205;28;20047;-84
2022/10/23 10:08:17;;;;;;;24.58;14.68;;;;;;;15.39;100.00;97662.75;5092070;28;20038;-85
2022/10/23 10:10:58;;;;;;;24.00;15.80;;;;;;;15.30;100.00;97659.81;5091779;28;20030;-86
2022/10/23 10:13:36;;;;;;;25.05;16.30;;;;;;;15.31;100.00;97658.75;5090786;28;20516;-87
2022/10/23 10:16:31;;;;;;;22.73;16.02;;;;;;;15.34;100.00;97646.88;5091010;28;20016;-85
2022/10/23 10:19:12;;;;;;;19.77;13.60;;;;;;;15.30;100.00;97645.78;5091124;28;20084;-86
2022/10/23 10:21:56;;;;;;;20.40;13.40;;;;;;;15.20;100.00;97643.91;5091370;28;20024;-85
2022/10/23 10:24:37;;;;;;;20.83;12.10;;;;;;;15.25;100.00;97615.66;5091965;28;20020;-85
2022/10/23 10:27:06;;;;;;;17.92;12.02;;;;;;;15.26;100.00;97627.81;5073773;28;20024;-86
2022/10/23 10:29:45;;;;;;;23.10;14.52;;;;;;;15.07;100.00;97618.75;5092134;28;20051;-85
2022/10/23 10:32:19;;;;;;;23.63;15.23;;;;;;;14.91;100.00;97631.91;5091581;28;20034;-86
2022/10/23 10:34:54;;;;;;;17.02;10.65;;;;;;;15.05;100.00;97647.28;5090517;28;20024;-86
2022/10/23 10:37:51;;;;;;;10.55;7.03;;;;;;;14.94;100.00;97615.56;5091540;28;20032;-85
2022/10/23 10:40:19;;;;;;;8.25;5.63;;;;;;;15.01;100.00;97598.66;5090908;28;20035;-85
2022/10/23 10:43:03;;;;;;;8.18;7.13;;;;;;;15.10;100.00;97612.94;5091239;28;20028;-85
2022/10/23 10:45:33;;;;;;;;;;;;;;;15.17;100.00;97626.72;5089562;28;20469;-86
2022/10/23 10:48:23;;;;;;;16.98;11.40;;;;;;;15.19;100.00;97631.75;5091069;28;19974;-86
2022/10/23 10:50:55;;;;;;;11.18;9.40;;;;;;;15.19;100.00;97626.47;5106748;28;20075;-87
2022/10/23 10:53:37;;;;;;;11.98;9.50;;;;;;;15.31;100.00;97624.38;5072918;28;20044;-86
2022/10/23 10:56:07;;;;;;;10.80;9.23;;;;;;;15.34;100.00;97612.50;5090541;28;20483;-85
2022/10/23 10:58:43;;;;;;;13.07;10.63;;;;;;;15.48;100.00;97610.16;5091387;28;20027;-86
2022/10/23 11:01:36;;;;;;;10.88;9.75;;;;;;;15.50;100.00;97606.19;5089959;28;20024;-85
2022/10/23 11:04:27;;;;;;;11.35;9.32;;;;;;;15.63;100.00;97604.91;5089655;28;20047;-85
2022/10/23 11:06:57;;;;;;;10.85;9.77;;;;;;;15.75;100.00;97602.00;5090854;28;20032;-86
2022/10/23 11:09:29;;;;;;;11.93;10.55;;;;;;;15.81;100.00;97595.63;5089761;28;20584;-86
2022/10/23 11:11:55;;;;;;;12.35;10.80;;;;;;;15.91;100.00;97588.78;5091310;28;20048;-85
2022/10/23 11:14:41;;;;;;;13.15;11.32;;;;;;;15.90;100.00;97592.47;5090064;28;20032;-85
2022/10/23 11:17:17;;;;;;;14.93;12.02;;;;;;;15.93;100.00;97584.03;5090318;28;20593;-85
2022/10/23 11:19:48;;;;;;;15.13;13.55;;;;;;;15.93;100.00;97574.22;5088585;28;20481;-84
2022/10/23 11:22:23;;;;;;;18.20;14.55;;;;;;;15.90;100.00;97568.66;5089654;28;20024;-85
2022/10/23 11:25:07;;;;;;;16.33;14.65;;;;;;;15.83;100.00;97550.41;5089668;28;20032;-85
2022/10/23 11:27:41;;;;;;;18.17;14.75;;;;;;;15.73;100.00;97551.22;5088071;28;20076;-85